sensor_id;sensor_type;location;lat;lon;timestamp;P1;durP1;ratioP1;P2;durP2;ratioP2
14096;SDS011;7125;48.106;11.544;2023-05-20T00:00:23;4.93;;;4.53;;
14096;SDS011;7125;48.106;11.544;2023-05-20T00:02:51;5.80;;;5.20;;
14096;SDS011;7125;48.106;11.544;2023-05-20T00:05:20;6.77;;;5.20;;
14096;SDS011;7125;48.106;11.544;2023-05-20T00:07:47;5.63;;;5.13;;
14096;SDS011;7125;48.106;11.544;2023-05-20T00:10:14;5.07;;;4.60;;
14096;SDS011;7125;48.106;11.544;2023-05-20T00:12:41;5.90;;;4.60;;
14096;SDS011;7125;48.106;11.544;2023-05-20T00:15:08;7.03;;;5.43;;
14096;SDS011;7125;48.106;11.544;2023-05-20T00:17:36;7.33;;;5.07;;
14096;SDS011;7125;48.106;11.544;2023-05-20T00:20:04;5.40;;;4.90;;
14096;SDS011;7125;48.106;11.544;2023-05-20T00:22:33;5.90;;;5.30;;
14096;SDS011;7125;48.106;11.544;2023-05-20T00:25:01;5.07;;;4.53;;
14096;SDS011;7125;48.106;11.544;2023-05-20T00:27:28;5.27;;;4.77;;
14096;SDS011;7125;48.106;11.544;2023-05-20T00:29:55;4.80;;;4.40;;
14096;SDS011;7125;48.106;11.544;2023-05-20T00:32:23;5.90;;;4.83;;
14096;SDS011;7125;48.106;11.544;2023-05-20T00:34:56;7.17;;;5.83;;
14096;SDS011;7125;48.106;11.544;2023-05-20T00:37:25;6.00;;;5.50;;
14096;SDS011;7125;48.106;11.544;2023-05-20T00:39:55;5.60;;;5.10;;
14096;SDS011;7125;48.106;11.544;2023-05-20T00:42:24;5.13;;;4.67;;
14096;SDS011;7125;48.106;11.544;2023-05-20T00:44:53;4.97;;;4.57;;
14096;SDS011;7125;48.106;11.544;2023-05-20T00:47:22;5.03;;;4.53;;
14096;SDS011;7125;48.106;11.544;2023-05-20T00:49:52;7.20;;;5.17;;
14096;SDS011;7125;48.106;11.544;2023-05-20T00:52:19;6.07;;;5.33;;
14096;SDS011;7125;48.106;11.544;2023-05-20T00:54:47;5.83;;;5.33;;
14096;SDS011;7125;48.106;11.544;2023-05-20T00:57:18;6.20;;;5.70;;
14096;SDS011;7125;48.106;11.544;2023-05-20T00:59:46;5.37;;;4.97;;
14096;SDS011;7125;48.106;11.544;2023-05-20T01:02:13;7.43;;;5.20;;
14096;SDS011;7125;48.106;11.544;2023-05-20T01:04:41;6.13;;;5.53;;
14096;SDS011;7125;48.106;11.544;2023-05-20T01:07:11;5.70;;;5.20;;
14096;SDS011;7125;48.106;11.544;2023-05-20T01:09:41;5.83;;;5.37;;
14096;SDS011;7125;48.106;11.544;2023-05-20T01:12:11;6.53;;;5.00;;
14096;SDS011;7125;48.106;11.544;2023-05-20T01:14:45;8.60;;;6.70;;
14096;SDS011;7125;48.106;11.544;2023-05-20T01:17:16;6.87;;;6.17;;
14096;SDS011;7125;48.106;11.544;2023-05-20T01:19:46;6.20;;;5.60;;
14096;SDS011;7125;48.106;11.544;2023-05-20T01:22:15;5.73;;;5.23;;
14096;SDS011;7125;48.106;11.544;2023-05-20T01:24:45;5.77;;;5.00;;
14096;SDS011;7125;48.106;11.544;2023-05-20T01:27:13;6.07;;;5.03;;
14096;SDS011;7125;48.106;11.544;2023-05-20T01:29:40;6.10;;;5.63;;
14096;SDS011;7125;48.106;11.544;2023-05-20T01:32:10;7.30;;;6.33;;
14096;SDS011;7125;48.106;11.544;2023-05-20T01:34:40;9.90;;;6.60;;
14096;SDS011;7125;48.106;11.544;2023-05-20T01:37:09;6.13;;;5.63;;
14096;SDS011;7125;48.106;11.544;2023-05-20T01:39:38;8.40;;;6.20;;
14096;SDS011;7125;48.106;11.544;2023-05-20T01:42:09;5.90;;;5.40;;
14096;SDS011;7125;48.106;11.544;2023-05-20T01:44:39;7.70;;;6.90;;
14096;SDS011;7125;48.106;11.544;2023-05-20T01:47:07;8.77;;;6.60;;
14096;SDS011;7125;48.106;11.544;2023-05-20T01:49:35;6.77;;;6.17;;
14096;SDS011;7125;48.106;11.544;2023-05-20T01:52:02;6.80;;;5.90;;
14096;SDS011;7125;48.106;11.544;2023-05-20T01:54:30;6.87;;;6.17;;
14096;SDS011;7125;48.106;11.544;2023-05-20T01:56:57;8.13;;;6.00;;
14096;SDS011;7125;48.106;11.544;2023-05-20T01:59:27;7.77;;;7.07;;
14096;SDS011;7125;48.106;11.544;2023-05-20T02:01:54;8.20;;;6.97;;
14096;SDS011;7125;48.106;11.544;2023-05-20T02:04:23;7.37;;;6.53;;
14096;SDS011;7125;48.106;11.544;2023-05-20T02:06:50;9.50;;;8.20;;
14096;SDS011;7125;48.106;11.544;2023-05-20T02:09:17;8.93;;;8.00;;
14096;SDS011;7125;48.106;11.544;2023-05-20T02:11:45;7.80;;;7.10;;
14096;SDS011;7125;48.106;11.544;2023-05-20T02:14:12;7.33;;;6.73;;
14096;SDS011;7125;48.106;11.544;2023-05-20T02:16:42;7.63;;;6.93;;
14096;SDS011;7125;48.106;11.544;2023-05-20T02:19:11;7.83;;;7.03;;
14096;SDS011;7125;48.106;11.544;2023-05-20T02:21:40;13.03;;;6.80;;
14096;SDS011;7125;48.106;11.544;2023-05-20T02:24:08;9.17;;;6.70;;
14096;SDS011;7125;48.106;11.544;2023-05-20T02:26:35;8.63;;;7.70;;
14096;SDS011;7125;48.106;11.544;2023-05-20T02:29:02;8.50;;;7.63;;
14096;SDS011;7125;48.106;11.544;2023-05-20T02:31:29;8.53;;;7.73;;
14096;SDS011;7125;48.106;11.544;2023-05-20T02:33:58;10.13;;;8.47;;
14096;SDS011;7125;48.106;11.544;2023-05-20T02:36:25;8.07;;;7.27;;
14096;SDS011;7125;48.106;11.544;2023-05-20T02:38:53;8.60;;;7.80;;
14096;SDS011;7125;48.106;11.544;2023-05-20T02:41:21;9.47;;;8.53;;
14096;SDS011;7125;48.106;11.544;2023-05-20T02:43:47;10.60;;;9.50;;
14096;SDS011;7125;48.106;11.544;2023-05-20T02:46:15;9.70;;;8.13;;
14096;SDS011;7125;48.106;11.544;2023-05-20T02:48:43;9.37;;;8.43;;
14096;SDS011;7125;48.106;11.544;2023-05-20T02:51:11;8.50;;;7.70;;
14096;SDS011;7125;48.106;11.544;2023-05-20T02:53:39;10.17;;;9.23;;
14096;SDS011;7125;48.106;11.544;2023-05-20T02:56:08;10.67;;;9.17;;
14096;SDS011;7125;48.106;11.544;2023-05-20T02:58:35;9.53;;;8.23;;
14096;SDS011;7125;48.106;11.544;2023-05-20T03:01:04;9.77;;;8.77;;
14096;SDS011;7125;48.106;11.544;2023-05-20T03:03:31;11.30;;;9.03;;
14096;SDS011;7125;48.106;11.544;2023-05-20T03:05:58;10.67;;;9.67;;
14096;SDS011;7125;48.106;11.544;2023-05-20T03:08:26;10.90;;;9.80;;
14096;SDS011;7125;48.106;11.544;2023-05-20T03:10:55;10.13;;;8.93;;
14096;SDS011;7125;48.106;11.544;2023-05-20T03:13:24;10.57;;;9.57;;
14096;SDS011;7125;48.106;11.544;2023-05-20T03:15:52;11.93;;;10.50;;
14096;SDS011;7125;48.106;11.544;2023-05-20T03:18:19;11.70;;;10.50;;
14096;SDS011;7125;48.106;11.544;2023-05-20T03:20:46;11.30;;;10.20;;
14096;SDS011;7125;48.106;11.544;2023-05-20T03:23:15;10.97;;;9.90;;
14096;SDS011;7125;48.106;11.544;2023-05-20T03:25:44;12.17;;;9.70;;
14096;SDS011;7125;48.106;11.544;2023-05-20T03:28:11;12.13;;;10.83;;
14096;SDS011;7125;48.106;11.544;2023-05-20T03:30:39;13.83;;;12.20;;
14096;SDS011;7125;48.106;11.544;2023-05-20T03:33:05;11.77;;;10.57;;
14096;SDS011;7125;48.106;11.544;2023-05-20T03:35:34;11.60;;;10.50;;
14096;SDS011;7125;48.106;11.544;2023-05-20T03:38:02;14.43;;;12.27;;
14096;SDS011;7125;48.106;11.544;2023-05-20T03:40:31;16.47;;;11.67;;
14096;SDS011;7125;48.106;11.544;2023-05-20T03:42:59;16.97;;;12.07;;
14096;SDS011;7125;48.106;11.544;2023-05-20T03:45:27;19.23;;;11.80;;
14096;SDS011;7125;48.106;11.544;2023-05-20T03:48:02;14.87;;;11.37;;
14096;SDS011;7125;48.106;11.544;2023-05-20T03:50:31;14.97;;;13.13;;
14096;SDS011;7125;48.106;11.544;2023-05-20T03:52:59;15.00;;;12.20;;
14096;SDS011;7125;48.106;11.544;2023-05-20T03:55:34;15.40;;;11.97;;
14096;SDS011;7125;48.106;11.544;2023-05-20T03:58:03;15.47;;;13.80;;
14096;SDS011;7125;48.106;11.544;2023-05-20T04:00:31;16.13;;;14.37;;
14096;SDS011;7125;48.106;11.544;2023-05-20T04:02:58;14.60;;;12.80;;
14096;SDS011;7125;48.106;11.544;2023-05-20T04:05:25;16.67;;;14.03;;
14096;SDS011;7125;48.106;11.544;2023-05-20T04:07:55;19.17;;;14.03;;
14096;SDS011;7125;48.106;11.544;2023-05-20T04:10:23;16.17;;;14.03;;
14096;SDS011;7125;48.106;11.544;2023-05-20T04:12:52;16.93;;;14.13;;
14096;SDS011;7125;48.106;11.544;2023-05-20T04:15:21;19.93;;;16.27;;
14096;SDS011;7125;48.106;11.544;2023-05-20T04:17:55;21.77;;;15.63;;
14096;SDS011;7125;48.106;11.544;2023-05-20T04:20:22;20.87;;;15.43;;
14096;SDS011;7125;48.106;11.544;2023-05-20T04:22:52;22.80;;;15.70;;
14096;SDS011;7125;48.106;11.544;2023-05-20T04:25:20;17.73;;;14.83;;
14096;SDS011;7125;48.106;11.544;2023-05-20T04:27:48;20.73;;;16.37;;
14096;SDS011;7125;48.106;11.544;2023-05-20T04:30:18;22.77;;;15.83;;
14096;SDS011;7125;48.106;11.544;2023-05-20T04:32:49;23.23;;;17.53;;
14096;SDS011;7125;48.106;11.544;2023-05-20T04:35:16;21.93;;;16.93;;
14096;SDS011;7125;48.106;11.544;2023-05-20T04:37:46;28.70;;;18.67;;
14096;SDS011;7125;48.106;11.544;2023-05-20T04:40:14;22.43;;;16.53;;
14096;SDS011;7125;48.106;11.544;2023-05-20T04:42:41;25.70;;;18.27;;
14096;SDS011;7125;48.106;11.544;2023-05-20T04:45:09;26.93;;;19.13;;
14096;SDS011;7125;48.106;11.544;2023-05-20T04:47:38;21.40;;;17.57;;
14096;SDS011;7125;48.106;11.544;2023-05-20T04:50:09;24.03;;;18.43;;
14096;SDS011;7125;48.106;11.544;2023-05-20T04:52:39;24.67;;;19.63;;
14096;SDS011;7125;48.106;11.544;2023-05-20T04:55:08;23.77;;;18.50;;
14096;SDS011;7125;48.106;11.544;2023-05-20T04:57:36;21.93;;;17.63;;
14096;SDS011;7125;48.106;11.544;2023-05-20T05:00:06;24.80;;;18.63;;
14096;SDS011;7125;48.106;11.544;2023-05-20T05:02:35;19.80;;;16.20;;
14096;SDS011;7125;48.106;11.544;2023-05-20T05:05:02;20.10;;;17.73;;
14096;SDS011;7125;48.106;11.544;2023-05-20T05:07:31;21.50;;;16.90;;
14096;SDS011;7125;48.106;11.544;2023-05-20T05:09:59;18.03;;;15.93;;
14096;SDS011;7125;48.106;11.544;2023-05-20T05:12:28;19.80;;;16.73;;
14096;SDS011;7125;48.106;11.544;2023-05-20T05:14:56;22.00;;;17.43;;
14096;SDS011;7125;48.106;11.544;2023-05-20T05:17:25;20.30;;;16.63;;
14096;SDS011;7125;48.106;11.544;2023-05-20T05:19:52;23.80;;;17.47;;
14096;SDS011;7125;48.106;11.544;2023-05-20T05:22:20;19.47;;;16.43;;
14096;SDS011;7125;48.106;11.544;2023-05-20T05:24:49;22.63;;;16.43;;
14096;SDS011;7125;48.106;11.544;2023-05-20T05:27:16;19.73;;;17.63;;
14096;SDS011;7125;48.106;11.544;2023-05-20T05:29:44;22.33;;;17.67;;
14096;SDS011;7125;48.106;11.544;2023-05-20T05:32:11;18.30;;;16.13;;
14096;SDS011;7125;48.106;11.544;2023-05-20T05:34:39;22.30;;;17.53;;
14096;SDS011;7125;48.106;11.544;2023-05-20T05:37:06;22.43;;;18.53;;
14096;SDS011;7125;48.106;11.544;2023-05-20T05:39:33;19.93;;;15.97;;
14096;SDS011;7125;48.106;11.544;2023-05-20T05:42:04;23.20;;;18.23;;
14096;SDS011;7125;48.106;11.544;2023-05-20T05:44:32;18.67;;;16.48;;
14096;SDS011;7125;48.106;11.544;2023-05-20T05:47:00;20.77;;;17.17;;
14096;SDS011;7125;48.106;11.544;2023-05-20T05:49:28;19.60;;;17.10;;
14096;SDS011;7125;48.106;11.544;2023-05-20T05:51:55;20.80;;;16.20;;
14096;SDS011;7125;48.106;11.544;2023-05-20T05:54:23;18.73;;;16.47;;
14096;SDS011;7125;48.106;11.544;2023-05-20T05:56:51;17.23;;;15.40;;
14096;SDS011;7125;48.106;11.544;2023-05-20T05:59:20;18.70;;;16.70;;
14096;SDS011;7125;48.106;11.544;2023-05-20T06:01:49;20.87;;;15.83;;
14096;SDS011;7125;48.106;11.544;2023-05-20T06:04:15;17.47;;;14.87;;
14096;SDS011;7125;48.106;11.544;2023-05-20T06:06:46;17.67;;;15.80;;
14096;SDS011;7125;48.106;11.544;2023-05-20T06:09:14;18.47;;;14.90;;
14096;SDS011;7125;48.106;11.544;2023-05-20T06:11:42;17.63;;;14.83;;
14096;SDS011;7125;48.106;11.544;2023-05-20T06:14:09;15.87;;;14.20;;
14096;SDS011;7125;48.106;11.544;2023-05-20T06:16:38;17.43;;;14.30;;
14096;SDS011;7125;48.106;11.544;2023-05-20T06:19:06;18.50;;;15.05;;
14096;SDS011;7125;48.106;11.544;2023-05-20T06:21:34;17.63;;;15.33;;
14096;SDS011;7125;48.106;11.544;2023-05-20T06:24:03;19.53;;;15.03;;
14096;SDS011;7125;48.106;11.544;2023-05-20T06:26:31;19.43;;;15.67;;
14096;SDS011;7125;48.106;11.544;2023-05-20T06:28:58;18.13;;;16.07;;
14096;SDS011;7125;48.106;11.544;2023-05-20T06:31:26;18.70;;;15.80;;
14096;SDS011;7125;48.106;11.544;2023-05-20T06:33:55;17.23;;;14.67;;
14096;SDS011;7125;48.106;11.544;2023-05-20T06:36:22;18.02;;;16.08;;
14096;SDS011;7125;48.106;11.544;2023-05-20T06:38:49;18.35;;;16.08;;
14096;SDS011;7125;48.106;11.544;2023-05-20T06:41:16;13.95;;;12.50;;
14096;SDS011;7125;48.106;11.544;2023-05-20T06:44:06;17.80;;;14.35;;
14096;SDS011;7125;48.106;11.544;2023-05-20T06:46:57;17.43;;;15.40;;
14096;SDS011;7125;48.106;11.544;2023-05-20T06:49:26;19.48;;;15.30;;
14096;SDS011;7125;48.106;11.544;2023-05-20T06:51:53;17.60;;;14.90;;
14096;SDS011;7125;48.106;11.544;2023-05-20T06:54:23;16.60;;;14.95;;
14096;SDS011;7125;48.106;11.544;2023-05-20T06:56:50;17.03;;;15.33;;
14096;SDS011;7125;48.106;11.544;2023-05-20T06:59:19;17.05;;;15.32;;
14096;SDS011;7125;48.106;11.544;2023-05-20T07:01:46;16.20;;;14.35;;
14096;SDS011;7125;48.106;11.544;2023-05-20T07:04:13;15.40;;;13.65;;
14096;SDS011;7125;48.106;11.544;2023-05-20T07:06:44;17.15;;;13.73;;
14096;SDS011;7125;48.106;11.544;2023-05-20T07:09:11;14.80;;;13.20;;
14096;SDS011;7125;48.106;11.544;2023-05-20T07:11:38;16.42;;;13.65;;
14096;SDS011;7125;48.106;11.544;2023-05-20T07:14:10;15.48;;;13.07;;
14096;SDS011;7125;48.106;11.544;2023-05-20T07:16:38;18.48;;;16.00;;
14096;SDS011;7125;48.106;11.544;2023-05-20T07:19:06;16.13;;;13.88;;
14096;SDS011;7125;48.106;11.544;2023-05-20T07:21:35;15.75;;;13.07;;
14096;SDS011;7125;48.106;11.544;2023-05-20T07:24:26;16.67;;;14.00;;
14096;SDS011;7125;48.106;11.544;2023-05-20T07:26:55;17.30;;;14.98;;
14096;SDS011;7125;48.106;11.544;2023-05-20T07:29:24;20.23;;;14.80;;
14096;SDS011;7125;48.106;11.544;2023-05-20T07:31:51;19.50;;;15.35;;
14096;SDS011;7125;48.106;11.544;2023-05-20T07:34:20;19.40;;;15.45;;
14096;SDS011;7125;48.106;11.544;2023-05-20T07:36:47;16.60;;;14.70;;
14096;SDS011;7125;48.106;11.544;2023-05-20T07:39:15;21.27;;;15.00;;
14096;SDS011;7125;48.106;11.544;2023-05-20T07:41:44;17.75;;;14.68;;
14096;SDS011;7125;48.106;11.544;2023-05-20T07:44:12;17.13;;;13.80;;
14096;SDS011;7125;48.106;11.544;2023-05-20T07:46:43;18.10;;;14.02;;
14096;SDS011;7125;48.106;11.544;2023-05-20T07:49:12;17.35;;;13.93;;
14096;SDS011;7125;48.106;11.544;2023-05-20T07:51:39;19.42;;;13.90;;
14096;SDS011;7125;48.106;11.544;2023-05-20T07:54:07;14.93;;;13.25;;
14096;SDS011;7125;48.106;11.544;2023-05-20T07:56:35;15.60;;;13.43;;
14096;SDS011;7125;48.106;11.544;2023-05-20T07:59:04;16.27;;;14.57;;
14096;SDS011;7125;48.106;11.544;2023-05-20T08:01:37;15.50;;;13.13;;
14096;SDS011;7125;48.106;11.544;2023-05-20T08:04:06;13.52;;;12.20;;
14096;SDS011;7125;48.106;11.544;2023-05-20T08:06:35;13.75;;;12.35;;
14096;SDS011;7125;48.106;11.544;2023-05-20T08:09:04;14.70;;;12.20;;
14096;SDS011;7125;48.106;11.544;2023-05-20T08:11:34;14.23;;;12.70;;
14096;SDS011;7125;48.106;11.544;2023-05-20T08:14:01;14.18;;;12.68;;
14096;SDS011;7125;48.106;11.544;2023-05-20T08:16:38;11.82;;;10.73;;
14096;SDS011;7125;48.106;11.544;2023-05-20T08:19:05;14.20;;;12.77;;
14096;SDS011;7125;48.106;11.544;2023-05-20T08:21:33;13.35;;;11.95;;
14096;SDS011;7125;48.106;11.544;2023-05-20T08:24:01;15.63;;;13.30;;
14096;SDS011;7125;48.106;11.544;2023-05-20T08:26:30;14.27;;;12.93;;
14096;SDS011;7125;48.106;11.544;2023-05-20T08:28:58;17.30;;;13.48;;
14096;SDS011;7125;48.106;11.544;2023-05-20T08:31:27;14.85;;;13.45;;
14096;SDS011;7125;48.106;11.544;2023-05-20T08:33:54;13.00;;;11.80;;
14096;SDS011;7125;48.106;11.544;2023-05-20T08:36:21;13.55;;;12.15;;
14096;SDS011;7125;48.106;11.544;2023-05-20T08:38:52;12.30;;;11.10;;
14096;SDS011;7125;48.106;11.544;2023-05-20T08:41:20;12.43;;;11.20;;
14096;SDS011;7125;48.106;11.544;2023-05-20T08:43:48;12.40;;;10.98;;
14096;SDS011;7125;48.106;11.544;2023-05-20T08:46:18;13.82;;;10.95;;
14096;SDS011;7125;48.106;11.544;2023-05-20T08:48:49;11.57;;;10.35;;
14096;SDS011;7125;48.106;11.544;2023-05-20T08:51:19;12.57;;;10.93;;
14096;SDS011;7125;48.106;11.544;2023-05-20T08:53:47;12.02;;;10.10;;
14096;SDS011;7125;48.106;11.544;2023-05-20T08:56:16;10.85;;;9.82;;
14096;SDS011;7125;48.106;11.544;2023-05-20T08:58:43;11.60;;;10.60;;
14096;SDS011;7125;48.106;11.544;2023-05-20T09:01:13;18.30;;;11.68;;
14096;SDS011;7125;48.106;11.544;2023-05-20T09:03:41;9.38;;;8.48;;
14096;SDS011;7125;48.106;11.544;2023-05-20T09:06:15;9.93;;;9.02;;
14096;SDS011;7125;48.106;11.544;2023-05-20T09:08:44;11.40;;;8.57;;
14096;SDS011;7125;48.106;11.544;2023-05-20T09:11:12;10.52;;;9.55;;
14096;SDS011;7125;48.106;11.544;2023-05-20T09:13:40;10.00;;;9.10;;
14096;SDS011;7125;48.106;11.544;2023-05-20T09:16:09;10.73;;;9.27;;
14096;SDS011;7125;48.106;11.544;2023-05-20T09:18:37;8.35;;;7.65;;
14096;SDS011;7125;48.106;11.544;2023-05-20T09:21:05;7.57;;;6.85;;
14096;SDS011;7125;48.106;11.544;2023-05-20T09:23:35;8.75;;;7.38;;
14096;SDS011;7125;48.106;11.544;2023-05-20T09:26:03;8.68;;;7.72;;
14096;SDS011;7125;48.106;11.544;2023-05-20T09:28:30;7.70;;;7.00;;
14096;SDS011;7125;48.106;11.544;2023-05-20T09:31:00;7.75;;;6.95;;
14096;SDS011;7125;48.106;11.544;2023-05-20T09:33:27;7.97;;;7.13;;
14096;SDS011;7125;48.106;11.544;2023-05-20T09:36:00;6.15;;;5.65;;
14096;SDS011;7125;48.106;11.544;2023-05-20T09:38:29;6.45;;;5.95;;
14096;SDS011;7125;48.106;11.544;2023-05-20T09:41:03;6.85;;;5.32;;
14096;SDS011;7125;48.106;11.544;2023-05-20T09:43:33;5.20;;;4.80;;
14096;SDS011;7125;48.106;11.544;2023-05-20T09:46:01;6.05;;;4.65;;
14096;SDS011;7125;48.106;11.544;2023-05-20T09:48:30;4.70;;;4.30;;
14096;SDS011;7125;48.106;11.544;2023-05-20T09:50:58;4.95;;;4.45;;
14096;SDS011;7125;48.106;11.544;2023-05-20T09:53:26;5.53;;;5.03;;
14096;SDS011;7125;48.106;11.544;2023-05-20T09:55:55;4.60;;;4.20;;
14096;SDS011;7125;48.106;11.544;2023-05-20T09:58:23;5.88;;;5.05;;
14096;SDS011;7125;48.106;11.544;2023-05-20T10:00:51;4.72;;;4.03;;
14096;SDS011;7125;48.106;11.544;2023-05-20T10:03:18;4.93;;;4.53;;
14096;SDS011;7125;48.106;11.544;2023-05-20T10:05:51;5.38;;;4.40;;
14096;SDS011;7125;48.106;11.544;2023-05-20T10:08:36;4.30;;;3.90;;
14096;SDS011;7125;48.106;11.544;2023-05-20T10:11:15;4.45;;;4.10;;
14096;SDS011;7125;48.106;11.544;2023-05-20T10:13:54;3.85;;;3.58;;
14096;SDS011;7125;48.106;11.544;2023-05-20T10:16:37;5.20;;;3.55;;
14096;SDS011;7125;48.106;11.544;2023-05-20T10:19:16;3.95;;;3.55;;
14096;SDS011;7125;48.106;11.544;2023-05-20T10:21:57;5.05;;;3.15;;
14096;SDS011;7125;48.106;11.544;2023-05-20T10:24:29;5.07;;;3.63;;
14096;SDS011;7125;48.106;11.544;2023-05-20T10:27:00;4.20;;;3.38;;
14096;SDS011;7125;48.106;11.544;2023-05-20T10:29:40;5.15;;;4.05;;
14096;SDS011;7125;48.106;11.544;2023-05-20T10:32:08;5.30;;;4.03;;
14096;SDS011;7125;48.106;11.544;2023-05-20T10:34:43;3.75;;;3.45;;
14096;SDS011;7125;48.106;11.544;2023-05-20T10:37:20;3.90;;;3.40;;
14096;SDS011;7125;48.106;11.544;2023-05-20T10:39:50;3.75;;;3.45;;
14096;SDS011;7125;48.106;11.544;2023-05-20T10:42:27;4.72;;;4.13;;
14096;SDS011;7125;48.106;11.544;2023-05-20T10:44:55;4.57;;;4.18;;
14096;SDS011;7125;48.106;11.544;2023-05-20T10:47:22;3.65;;;3.38;;
14096;SDS011;7125;48.106;11.544;2023-05-20T10:49:49;3.65;;;2.80;;
14096;SDS011;7125;48.106;11.544;2023-05-20T10:52:17;3.38;;;2.97;;
14096;SDS011;7125;48.106;11.544;2023-05-20T10:54:45;4.85;;;3.05;;
14096;SDS011;7125;48.106;11.544;2023-05-20T10:57:13;3.88;;;2.83;;
14096;SDS011;7125;48.106;11.544;2023-05-20T10:59:42;3.50;;;3.20;;
14096;SDS011;7125;48.106;11.544;2023-05-20T11:02:11;3.58;;;2.95;;
14096;SDS011;7125;48.106;11.544;2023-05-20T11:04:41;5.43;;;3.33;;
14096;SDS011;7125;48.106;11.544;2023-05-20T11:07:09;3.63;;;2.80;;
14096;SDS011;7125;48.106;11.544;2023-05-20T11:09:36;3.33;;;2.60;;
14096;SDS011;7125;48.106;11.544;2023-05-20T11:12:04;3.20;;;2.38;;
14096;SDS011;7125;48.106;11.544;2023-05-20T11:14:33;4.30;;;2.50;;
14096;SDS011;7125;48.106;11.544;2023-05-20T11:17:02;8.50;;;3.28;;
14096;SDS011;7125;48.106;11.544;2023-05-20T11:19:29;2.80;;;2.60;;
14096;SDS011;7125;48.106;11.544;2023-05-20T11:21:58;5.68;;;2.90;;
14096;SDS011;7125;48.106;11.544;2023-05-20T11:24:26;3.33;;;3.13;;
14096;SDS011;7125;48.106;11.544;2023-05-20T11:26:54;5.35;;;2.60;;
14096;SDS011;7125;48.106;11.544;2023-05-20T11:29:24;3.53;;;2.97;;
14096;SDS011;7125;48.106;11.544;2023-05-20T11:31:53;2.95;;;2.75;;
14096;SDS011;7125;48.106;11.544;2023-05-20T11:37:08;3.28;;;3.08;;
14096;SDS011;7125;48.106;11.544;2023-05-20T11:39:36;7.65;;;3.97;;
14096;SDS011;7125;48.106;11.544;2023-05-20T11:42:04;3.20;;;3.00;;
14096;SDS011;7125;48.106;11.544;2023-05-20T11:44:32;4.38;;;3.00;;
14096;SDS011;7125;48.106;11.544;2023-05-20T11:47:00;4.38;;;3.60;;
14096;SDS011;7125;48.106;11.544;2023-05-20T11:49:29;3.60;;;3.30;;
14096;SDS011;7125;48.106;11.544;2023-05-20T11:51:56;3.72;;;3.42;;
14096;SDS011;7125;48.106;11.544;2023-05-20T11:54:25;5.13;;;2.92;;
14096;SDS011;7125;48.106;11.544;2023-05-20T11:56:52;3.80;;;2.88;;
14096;SDS011;7125;48.106;11.544;2023-05-20T11:59:20;3.88;;;2.55;;
14096;SDS011;7125;48.106;11.544;2023-05-20T12:01:53;3.17;;;2.88;;
14096;SDS011;7125;48.106;11.544;2023-05-20T12:04:19;3.10;;;2.90;;
14096;SDS011;7125;48.106;11.544;2023-05-20T12:06:47;2.75;;;2.17;;
14096;SDS011;7125;48.106;11.544;2023-05-20T12:09:14;3.50;;;2.88;;
14096;SDS011;7125;48.106;11.544;2023-05-20T12:11:44;2.60;;;2.25;;
14096;SDS011;7125;48.106;11.544;2023-05-20T12:14:14;5.55;;;3.08;;
14096;SDS011;7125;48.106;11.544;2023-05-20T12:16:42;2.97;;;2.78;;
14096;SDS011;7125;48.106;11.544;2023-05-20T12:19:09;2.92;;;2.72;;
14096;SDS011;7125;48.106;11.544;2023-05-20T12:21:38;3.78;;;2.97;;
14096;SDS011;7125;48.106;11.544;2023-05-20T12:24:04;3.00;;;2.80;;
14096;SDS011;7125;48.106;11.544;2023-05-20T12:26:39;3.65;;;2.47;;
14096;SDS011;7125;48.106;11.544;2023-05-20T12:29:07;3.58;;;3.28;;
14096;SDS011;7125;48.106;11.544;2023-05-20T12:31:34;3.67;;;3.38;;
14096;SDS011;7125;48.106;11.544;2023-05-20T12:34:02;6.20;;;2.70;;
14096;SDS011;7125;48.106;11.544;2023-05-20T12:36:29;3.38;;;3.08;;
14096;SDS011;7125;48.106;11.544;2023-05-20T12:38:57;2.72;;;2.53;;
14096;SDS011;7125;48.106;11.544;2023-05-20T12:41:25;3.33;;;3.03;;
14096;SDS011;7125;48.106;11.544;2023-05-20T12:43:52;3.38;;;3.17;;
14096;SDS011;7125;48.106;11.544;2023-05-20T12:46:21;3.90;;;3.60;;
14096;SDS011;7125;48.106;11.544;2023-05-20T12:48:48;3.42;;;3.13;;
14096;SDS011;7125;48.106;11.544;2023-05-20T12:51:15;3.60;;;3.38;;
14096;SDS011;7125;48.106;11.544;2023-05-20T12:53:44;3.80;;;3.45;;
14096;SDS011;7125;48.106;11.544;2023-05-20T12:56:11;3.95;;;2.92;;
14096;SDS011;7125;48.106;11.544;2023-05-20T12:58:38;3.88;;;3.58;;
14096;SDS011;7125;48.106;11.544;2023-05-20T13:01:05;4.10;;;3.80;;
14096;SDS011;7125;48.106;11.544;2023-05-20T13:03:34;4.55;;;3.85;;
14096;SDS011;7125;48.106;11.544;2023-05-20T13:06:01;4.55;;;3.67;;
14096;SDS011;7125;48.106;11.544;2023-05-20T13:08:29;3.95;;;3.60;;
14096;SDS011;7125;48.106;11.544;2023-05-20T13:10:57;4.07;;;3.78;;
14096;SDS011;7125;48.106;11.544;2023-05-20T13:13:25;5.05;;;4.65;;
14096;SDS011;7125;48.106;11.544;2023-05-20T13:15:53;6.72;;;4.93;;
14096;SDS011;7125;48.106;11.544;2023-05-20T13:18:20;11.07;;;4.93;;
14096;SDS011;7125;48.106;11.544;2023-05-20T13:20:49;5.20;;;4.80;;
14096;SDS011;7125;48.106;11.544;2023-05-20T13:23:17;6.55;;;5.45;;
14096;SDS011;7125;48.106;11.544;2023-05-20T13:25:44;6.13;;;5.53;;
14096;SDS011;7125;48.106;11.544;2023-05-20T13:28:11;5.78;;;5.10;;
14096;SDS011;7125;48.106;11.544;2023-05-20T13:30:41;5.80;;;5.20;;
14096;SDS011;7125;48.106;11.544;2023-05-20T13:33:09;6.20;;;5.60;;
14096;SDS011;7125;48.106;11.544;2023-05-20T13:35:35;6.35;;;5.78;;
14096;SDS011;7125;48.106;11.544;2023-05-20T13:38:04;7.28;;;5.68;;
14096;SDS011;7125;48.106;11.544;2023-05-20T13:40:31;7.40;;;6.50;;
14096;SDS011;7125;48.106;11.544;2023-05-20T13:42:58;6.85;;;6.15;;
14096;SDS011;7125;48.106;11.544;2023-05-20T13:45:25;5.70;;;5.20;;
14096;SDS011;7125;48.106;11.544;2023-05-20T13:47:53;7.20;;;5.60;;
14096;SDS011;7125;48.106;11.544;2023-05-20T13:50:22;7.15;;;6.28;;
14096;SDS011;7125;48.106;11.544;2023-05-20T13:52:49;13.40;;;6.68;;
14096;SDS011;7125;48.106;11.544;2023-05-20T13:55:18;6.65;;;6.13;;
14096;SDS011;7125;48.106;11.544;2023-05-20T13:57:45;6.40;;;5.80;;
14096;SDS011;7125;48.106;11.544;2023-05-20T14:00:13;7.18;;;6.60;;
14096;SDS011;7125;48.106;11.544;2023-05-20T14:02:40;7.30;;;6.60;;
14096;SDS011;7125;48.106;11.544;2023-05-20T14:05:07;6.15;;;5.47;;
14096;SDS011;7125;48.106;11.544;2023-05-20T14:07:35;6.57;;;5.93;;
14096;SDS011;7125;48.106;11.544;2023-05-20T14:10:03;6.35;;;5.57;;
14096;SDS011;7125;48.106;11.544;2023-05-20T14:12:34;6.28;;;5.68;;
14096;SDS011;7125;48.106;11.544;2023-05-20T14:15:01;9.55;;;6.70;;
14096;SDS011;7125;48.106;11.544;2023-05-20T14:17:29;6.72;;;6.13;;
14096;SDS011;7125;48.106;11.544;2023-05-20T14:19:55;8.55;;;5.80;;
14096;SDS011;7125;48.106;11.544;2023-05-20T14:22:22;10.18;;;5.85;;
14096;SDS011;7125;48.106;11.544;2023-05-20T14:24:52;6.00;;;5.50;;
14096;SDS011;7125;48.106;11.544;2023-05-20T14:27:20;10.80;;;5.50;;
14096;SDS011;7125;48.106;11.544;2023-05-20T14:29:48;7.65;;;6.25;;
14096;SDS011;7125;48.106;11.544;2023-05-20T14:32:15;7.43;;;6.72;;
14096;SDS011;7125;48.106;11.544;2023-05-20T14:34:42;6.95;;;6.32;;
14096;SDS011;7125;48.106;11.544;2023-05-20T14:37:09;7.70;;;6.50;;
14096;SDS011;7125;48.106;11.544;2023-05-20T14:39:36;8.88;;;7.13;;
14096;SDS011;7125;48.106;11.544;2023-05-20T14:42:04;7.47;;;6.88;;
14096;SDS011;7125;48.106;11.544;2023-05-20T14:44:31;7.90;;;7.18;;
14096;SDS011;7125;48.106;11.544;2023-05-20T14:47:00;7.78;;;7.05;;